sensor_id;sensor_type;location;lat;lon;timestamp;temperature;humidity
13711;DHT22;6927;51.256;9.410;2022-11-14T00:00:57;0.90;99.90
13711;DHT22;6927;51.256;9.410;2022-11-14T00:03:23;0.80;99.90
13711;DHT22;6927;51.256;9.410;2022-11-14T00:05:48;0.80;99.90
13711;DHT22;6927;51.256;9.410;2022-11-14T00:08:23;0.80;99.90
13711;DHT22;6927;51.256;9.410;2022-11-14T00:10:51;0.80;99.90
13711;DHT22;6927;51.256;9.410;2022-11-14T00:13:19;0.70;99.90
13711;DHT22;6927;51.256;9.410;2022-11-14T00:15:48;0.70;99.90
13711;DHT22;6927;51.256;9.410;2022-11-14T00:18:15;0.70;99.90
13711;DHT22;6927;51.256;9.410;2022-11-14T00:20:41;0.60;99.90
13711;DHT22;6927;51.256;9.410;2022-11-14T00:23:06;0.60;99.90
13711;DHT22;6927;51.256;9.410;2022-11-14T00:25:32;0.60;99.90
13711;DHT22;6927;51.256;9.410;2022-11-14T00:28:06;0.60;99.90
13711;DHT22;6927;51.256;9.410;2022-11-14T00:30:31;0.60;99.90
13711;DHT22;6927;51.256;9.410;2022-11-14T00:32:57;0.60;99.90
13711;DHT22;6927;51.256;9.410;2022-11-14T00:35:25;0.60;99.90
13711;DHT22;6927;51.256;9.410;2022-11-14T00:37:51;0.50;99.90
13711;DHT22;6927;51.256;9.410;2022-11-14T00:40:19;0.50;99.90
13711;DHT22;6927;51.256;9.410;2022-11-14T00:42:47;0.50;99.90
13711;DHT22;6927;51.256;9.410;2022-11-14T00:45:16;0.50;99.90
13711;DHT22;6927;51.256;9.410;2022-11-14T00:47:42;0.50;99.90
13711;DHT22;6927;51.256;9.410;2022-11-14T00:50:09;0.50;99.90
13711;DHT22;6927;51.256;9.410;2022-11-14T00:52:34;0.40;99.90
13711;DHT22;6927;51.256;9.410;2022-11-14T00:55:00;0.40;99.90
13711;DHT22;6927;51.256;9.410;2022-11-14T00:57:26;0.30;99.90
13711;DHT22;6927;51.256;9.410;2022-11-14T00:59:51;0.30;99.90
13711;DHT22;6927;51.256;9.410;2022-11-14T01:02:20;0.20;99.90
13711;DHT22;6927;51.256;9.410;2022-11-14T01:04:45;0.20;99.90
13711;DHT22;6927;51.256;9.410;2022-11-14T01:07:11;0.20;99.90
13711;DHT22;6927;51.256;9.410;2022-11-14T01:09:37;0.20;99.90
13711;DHT22;6927;51.256;9.410;2022-11-14T01:12:02;0.10;99.90
13711;DHT22;6927;51.256;9.410;2022-11-14T01:14:28;0.10;99.90
13711;DHT22;6927;51.256;9.410;2022-11-14T01:16:54;0.10;99.90
13711;DHT22;6927;51.256;9.410;2022-11-14T01:19:19;0.20;99.90
13711;DHT22;6927;51.256;9.410;2022-11-14T01:21:45;0.10;99.90
13711;DHT22;6927;51.256;9.410;2022-11-14T01:24:10;0.10;99.90
13711;DHT22;6927;51.256;9.410;2022-11-14T01:26:36;0.10;99.90
13711;DHT22;6927;51.256;9.410;2022-11-14T01:29:02;0.20;99.90
13711;DHT22;6927;51.256;9.410;2022-11-14T01:31:27;0.10;99.90
13711;DHT22;6927;51.256;9.410;2022-11-14T01:33:53;0.20;99.90
13711;DHT22;6927;51.256;9.410;2022-11-14T01:36:19;0.10;99.90
13711;DHT22;6927;51.256;9.410;2022-11-14T01:38:45;0.10;99.90
13711;DHT22;6927;51.256;9.410;2022-11-14T01:41:15;0.10;99.90
13711;DHT22;6927;51.256;9.410;2022-11-14T01:43:43;0.10;99.90
13711;DHT22;6927;51.256;9.410;2022-11-14T01:49:16;0.00;99.90
13711;DHT22;6927;51.256;9.410;2022-11-14T01:54:15;0.00;99.90
13711;DHT22;6927;51.256;9.410;2022-11-14T01:56:47;0.00;99.90
13711;DHT22;6927;51.256;9.410;2022-11-14T01:59:21;-0.10;99.90
13711;DHT22;6927;51.256;9.410;2022-11-14T02:01:51;-0.10;99.90
13711;DHT22;6927;51.256;9.410;2022-11-14T02:04:26;-0.10;99.90
13711;DHT22;6927;51.256;9.410;2022-11-14T02:06:57;-0.10;99.90
13711;DHT22;6927;51.256;9.410;2022-11-14T02:09:31;-0.10;99.90
13711;DHT22;6927;51.256;9.410;2022-11-14T02:12:00;-0.10;99.90
13711;DHT22;6927;51.256;9.410;2022-11-14T02:14:27;-0.10;99.90
13711;DHT22;6927;51.256;9.410;2022-11-14T02:16:53;-0.10;99.90
13711;DHT22;6927;51.256;9.410;2022-11-14T02:19:19;-0.10;99.90
13711;DHT22;6927;51.256;9.410;2022-11-14T02:21:50;-0.20;99.90
13711;DHT22;6927;51.256;9.410;2022-11-14T02:24:16;-0.20;99.90
13711;DHT22;6927;51.256;9.410;2022-11-14T02:26:42;-0.20;99.90
13711;DHT22;6927;51.256;9.410;2022-11-14T02:29:09;-0.20;99.90
13711;DHT22;6927;51.256;9.410;2022-11-14T02:31:35;-0.20;99.90
13711;DHT22;6927;51.256;9.410;2022-11-14T02:34:01;-0.20;99.90
13711;DHT22;6927;51.256;9.410;2022-11-14T02:36:27;-0.20;99.90
13711;DHT22;6927;51.256;9.410;2022-11-14T02:38:53;-0.20;99.90
13711;DHT22;6927;51.256;9.410;2022-11-14T02:41:18;-0.30;99.90
13711;DHT22;6927;51.256;9.410;2022-11-14T02:43:44;-0.30;99.90
13711;DHT22;6927;51.256;9.410;2022-11-14T02:46:10;-0.30;99.90
13711;DHT22;6927;51.256;9.410;2022-11-14T02:48:36;-0.30;99.90
13711;DHT22;6927;51.256;9.410;2022-11-14T02:51:02;-0.30;99.90
13711;DHT22;6927;51.256;9.410;2022-11-14T02:53:27;-0.30;99.90
13711;DHT22;6927;51.256;9.410;2022-11-14T02:55:55;-0.30;99.90
13711;DHT22;6927;51.256;9.410;2022-11-14T02:58:21;-0.30;99.90
13711;DHT22;6927;51.256;9.410;2022-11-14T03:00:47;-0.30;99.90
13711;DHT22;6927;51.256;9.410;2022-11-14T03:03:16;-0.30;99.90
13711;DHT22;6927;51.256;9.410;2022-11-14T03:05:41;-0.20;99.90
13711;DHT22;6927;51.256;9.410;2022-11-14T03:08:07;-0.20;99.90
13711;DHT22;6927;51.256;9.410;2022-11-14T03:10:32;-0.30;99.90
13711;DHT22;6927;51.256;9.410;2022-11-14T03:12:58;-0.30;99.90
13711;DHT22;6927;51.256;9.410;2022-11-14T03:15:24;-0.30;99.90
13711;DHT22;6927;51.256;9.410;2022-11-14T03:17:50;-0.30;99.90
13711;DHT22;6927;51.256;9.410;2022-11-14T03:20:21;-0.30;99.90
13711;DHT22;6927;51.256;9.410;2022-11-14T03:22:47;-0.40;99.90
13711;DHT22;6927;51.256;9.410;2022-11-14T03:25:19;-0.40;99.90
13711;DHT22;6927;51.256;9.410;2022-11-14T03:27:47;-0.40;99.90
13711;DHT22;6927;51.256;9.410;2022-11-14T03:30:13;-0.30;99.90
13711;DHT22;6927;51.256;9.410;2022-11-14T03:32:41;-0.30;99.90
13711;DHT22;6927;51.256;9.410;2022-11-14T03:35:07;-0.30;99.90
13711;DHT22;6927;51.256;9.410;2022-11-14T03:37:33;-0.30;99.90
13711;DHT22;6927;51.256;9.410;2022-11-14T03:39:59;-0.40;99.90
13711;DHT22;6927;51.256;9.410;2022-11-14T03:42:24;-0.40;99.90
13711;DHT22;6927;51.256;9.410;2022-11-14T03:44:50;-0.40;99.90
13711;DHT22;6927;51.256;9.410;2022-11-14T03:47:15;-0.40;99.90
13711;DHT22;6927;51.256;9.410;2022-11-14T03:49:41;-0.40;99.90
13711;DHT22;6927;51.256;9.410;2022-11-14T03:52:10;-0.40;99.90
13711;DHT22;6927;51.256;9.410;2022-11-14T03:54:36;-0.40;99.90
13711;DHT22;6927;51.256;9.410;2022-11-14T03:57:02;-0.40;99.90
13711;DHT22;6927;51.256;9.410;2022-11-14T03:59:28;-0.40;99.90
13711;DHT22;6927;51.256;9.410;2022-11-14T04:01:53;-0.40;99.90
13711;DHT22;6927;51.256;9.410;2022-11-14T04:04:19;-0.40;99.90
13711;DHT22;6927;51.256;9.410;2022-11-14T04:06:45;-0.40;99.90
13711;DHT22;6927;51.256;9.410;2022-11-14T04:09:10;-0.40;99.90
13711;DHT22;6927;51.256;9.410;2022-11-14T04:11:36;-0.50;99.90
13711;DHT22;6927;51.256;9.410;2022-11-14T04:14:02;-0.40;99.90
13711;DHT22;6927;51.256;9.410;2022-11-14T04:16:28;-0.40;99.90
13711;DHT22;6927;51.256;9.410;2022-11-14T04:18:56;-0.40;99.90
13711;DHT22;6927;51.256;9.410;2022-11-14T04:21:22;-0.30;99.90
13711;DHT22;6927;51.256;9.410;2022-11-14T04:24:05;-0.40;99.90
13711;DHT22;6927;51.256;9.410;2022-11-14T04:26:31;-0.40;99.90
13711;DHT22;6927;51.256;9.410;2022-11-14T04:28:59;-0.40;99.90
13711;DHT22;6927;51.256;9.410;2022-11-14T04:31:28;-0.40;99.90
13711;DHT22;6927;51.256;9.410;2022-11-14T04:33:53;-0.40;99.90
13711;DHT22;6927;51.256;9.410;2022-11-14T04:36:28;-0.50;99.90
13711;DHT22;6927;51.256;9.410;2022-11-14T04:39:03;-0.50;99.90
13711;DHT22;6927;51.256;9.410;2022-11-14T04:41:46;-0.50;99.90
13711;DHT22;6927;51.256;9.410;2022-11-14T04:44:32;-0.50;99.90
13711;DHT22;6927;51.256;9.410;2022-11-14T04:47:00;-0.50;99.90
13711;DHT22;6927;51.256;9.410;2022-11-14T04:49:32;-0.60;99.90
13711;DHT22;6927;51.256;9.410;2022-11-14T04:51:58;-0.60;99.90
13711;DHT22;6927;51.256;9.410;2022-11-14T04:54:23;-0.50;99.90
13711;DHT22;6927;51.256;9.410;2022-11-14T04:56:56;-0.60;99.90
13711;DHT22;6927;51.256;9.410;2022-11-14T04:59:25;-0.50;99.90
13711;DHT22;6927;51.256;9.410;2022-11-14T05:01:56;-0.60;99.90
13711;DHT22;6927;51.256;9.410;2022-11-14T05:04:22;-0.60;99.90
13711;DHT22;6927;51.256;9.410;2022-11-14T05:06:47;-0.60;99.90
13711;DHT22;6927;51.256;9.410;2022-11-14T05:09:13;-0.60;99.90
13711;DHT22;6927;51.256;9.410;2022-11-14T05:11:39;-0.60;99.90
13711;DHT22;6927;51.256;9.410;2022-11-14T05:14:04;-0.60;99.90
13711;DHT22;6927;51.256;9.410;2022-11-14T05:16:30;-0.60;99.90
13711;DHT22;6927;51.256;9.410;2022-11-14T05:18:58;-0.60;99.90
13711;DHT22;6927;51.256;9.410;2022-11-14T05:21:23;-0.50;99.90
13711;DHT22;6927;51.256;9.410;2022-11-14T05:23:51;-0.60;99.90
13711;DHT22;6927;51.256;9.410;2022-11-14T05:26:17;-0.60;99.90
13711;DHT22;6927;51.256;9.410;2022-11-14T05:28:48;-0.60;99.90
13711;DHT22;6927;51.256;9.410;2022-11-14T05:31:22;-0.60;99.90
13711;DHT22;6927;51.256;9.410;2022-11-14T05:33:48;-0.60;99.90
13711;DHT22;6927;51.256;9.410;2022-11-14T05:36:22;-0.60;99.90
13711;DHT22;6927;51.256;9.410;2022-11-14T05:38:50;-0.50;99.90
13711;DHT22;6927;51.256;9.410;2022-11-14T05:41:17;-0.50;99.90
13711;DHT22;6927;51.256;9.410;2022-11-14T05:43:44;-0.50;99.90
13711;DHT22;6927;51.256;9.410;2022-11-14T05:46:12;-0.50;99.90
13711;DHT22;6927;51.256;9.410;2022-11-14T05:48:38;-0.60;99.90
13711;DHT22;6927;51.256;9.410;2022-11-14T05:51:05;-0.60;99.90
13711;DHT22;6927;51.256;9.410;2022-11-14T05:53:32;-0.50;99.90
13711;DHT22;6927;51.256;9.410;2022-11-14T05:56:06;-0.50;99.90
13711;DHT22;6927;51.256;9.410;2022-11-14T05:58:34;-0.50;99.90
13711;DHT22;6927;51.256;9.410;2022-11-14T06:01:10;-0.50;99.90
13711;DHT22;6927;51.256;9.410;2022-11-14T06:03:42;-0.40;99.90
13711;DHT22;6927;51.256;9.410;2022-11-14T06:06:09;-0.40;99.90
13711;DHT22;6927;51.256;9.410;2022-11-14T06:08:35;-0.50;99.90
13711;DHT22;6927;51.256;9.410;2022-11-14T06:11:03;-0.50;99.90
13711;DHT22;6927;51.256;9.410;2022-11-14T06:13:29;-0.50;99.90
13711;DHT22;6927;51.256;9.410;2022-11-14T06:16:02;-0.50;99.90
13711;DHT22;6927;51.256;9.410;2022-11-14T06:18:29;-0.50;99.90
13711;DHT22;6927;51.256;9.410;2022-11-14T06:21:03;-0.50;99.90
13711;DHT22;6927;51.256;9.410;2022-11-14T06:23:29;-0.40;99.90
13711;DHT22;6927;51.256;9.410;2022-11-14T06:26:03;-0.40;99.90
13711;DHT22;6927;51.256;9.410;2022-11-14T06:28:29;-0.40;99.90
13711;DHT22;6927;51.256;9.410;2022-11-14T06:31:02;-0.40;99.90
13711;DHT22;6927;51.256;9.410;2022-11-14T06:33:33;-0.50;99.90
13711;DHT22;6927;51.256;9.410;2022-11-14T06:36:04;-0.50;99.90
13711;DHT22;6927;51.256;9.410;2022-11-14T06:38:31;-0.40;99.90
13711;DHT22;6927;51.256;9.410;2022-11-14T06:41:15;-0.40;99.90
13711;DHT22;6927;51.256;9.410;2022-11-14T06:43:43;-0.30;99.90
13711;DHT22;6927;51.256;9.410;2022-11-14T06:46:10;-0.30;99.90
13711;DHT22;6927;51.256;9.410;2022-11-14T06:48:37;-0.30;99.90
13711;DHT22;6927;51.256;9.410;2022-11-14T06:51:03;-0.30;99.90
13711;DHT22;6927;51.256;9.410;2022-11-14T06:53:31;-0.30;99.90
13711;DHT22;6927;51.256;9.410;2022-11-14T06:55:59;-0.30;99.90
13711;DHT22;6927;51.256;9.410;2022-11-14T06:58:30;-0.30;99.90
13711;DHT22;6927;51.256;9.410;2022-11-14T07:01:11;-0.20;99.90
13711;DHT22;6927;51.256;9.410;2022-11-14T07:03:38;-0.20;99.90
13711;DHT22;6927;51.256;9.410;2022-11-14T07:06:04;-0.20;99.90
13711;DHT22;6927;51.256;9.410;2022-11-14T07:08:31;-0.20;99.90
13711;DHT22;6927;51.256;9.410;2022-11-14T07:11:17;0.00;99.90
13711;DHT22;6927;51.256;9.410;2022-11-14T07:13:50;0.10;99.90
13711;DHT22;6927;51.256;9.410;2022-11-14T07:16:16;0.20;99.90
13711;DHT22;6927;51.256;9.410;2022-11-14T07:18:42;0.30;99.90
13711;DHT22;6927;51.256;9.410;2022-11-14T07:21:08;0.40;99.90
13711;DHT22;6927;51.256;9.410;2022-11-14T07:23:34;0.50;99.90
13711;DHT22;6927;51.256;9.410;2022-11-14T07:26:01;0.60;99.90
13711;DHT22;6927;51.256;9.410;2022-11-14T07:28:27;0.60;99.90
13711;DHT22;6927;51.256;9.410;2022-11-14T07:30:53;0.80;99.90
13711;DHT22;6927;51.256;9.410;2022-11-14T07:33:18;1.00;99.90
13711;DHT22;6927;51.256;9.410;2022-11-14T07:35:44;1.20;99.90
13711;DHT22;6927;51.256;9.410;2022-11-14T07:38:09;1.40;99.90
13711;DHT22;6927;51.256;9.410;2022-11-14T07:40:35;1.50;99.90
13711;DHT22;6927;51.256;9.410;2022-11-14T07:43:01;1.50;99.90
13711;DHT22;6927;51.256;9.410;2022-11-14T07:45:27;1.70;99.90
13711;DHT22;6927;51.256;9.410;2022-11-14T07:47:57;1.90;99.90
13711;DHT22;6927;51.256;9.410;2022-11-14T07:50:24;2.10;99.90
13711;DHT22;6927;51.256;9.410;2022-11-14T07:52:51;2.20;99.90
13711;DHT22;6927;51.256;9.410;2022-11-14T07:55:17;2.40;99.90
13711;DHT22;6927;51.256;9.410;2022-11-14T07:57:43;2.80;99.90
13711;DHT22;6927;51.256;9.410;2022-11-14T08:00:09;3.10;99.90
13711;DHT22;6927;51.256;9.410;2022-11-14T08:02:35;3.50;99.90
13711;DHT22;6927;51.256;9.410;2022-11-14T08:05:00;3.90;99.90
13711;DHT22;6927;51.256;9.410;2022-11-14T08:07:26;4.00;99.90
13711;DHT22;6927;51.256;9.410;2022-11-14T08:09:51;4.10;99.90
13711;DHT22;6927;51.256;9.410;2022-11-14T08:12:17;4.30;99.90
13711;DHT22;6927;51.256;9.410;2022-11-14T08:14:43;4.70;99.90
13711;DHT22;6927;51.256;9.410;2022-11-14T08:17:08;5.10;99.90
13711;DHT22;6927;51.256;9.410;2022-11-14T08:19:34;5.80;99.90
13711;DHT22;6927;51.256;9.410;2022-11-14T08:21:59;6.80;99.90
13711;DHT22;6927;51.256;9.410;2022-11-14T08:24:25;7.70;99.90
13711;DHT22;6927;51.256;9.410;2022-11-14T08:26:50;8.50;99.90
13711;DHT22;6927;51.256;9.410;2022-11-14T08:29:16;9.30;99.90
13711;DHT22;6927;51.256;9.410;2022-11-14T08:31:41;9.30;99.90
13711;DHT22;6927;51.256;9.410;2022-11-14T08:34:07;9.30;99.90
13711;DHT22;6927;51.256;9.410;2022-11-14T08:36:34;8.90;99.90
13711;DHT22;6927;51.256;9.410;2022-11-14T08:38:59;8.30;99.90
13711;DHT22;6927;51.256;9.410;2022-11-14T08:41:25;7.90;99.90
13711;DHT22;6927;51.256;9.410;2022-11-14T08:43:50;8.00;99.90
13711;DHT22;6927;51.256;9.410;2022-11-14T08:46:16;8.10;99.90
13711;DHT22;6927;51.256;9.410;2022-11-14T08:48:41;8.20;99.90
13711;DHT22;6927;51.256;9.410;2022-11-14T08:51:07;8.10;99.90
13711;DHT22;6927;51.256;9.410;2022-11-14T08:53:33;8.00;99.90
13711;DHT22;6927;51.256;9.410;2022-11-14T08:55:59;8.00;99.90
13711;DHT22;6927;51.256;9.410;2022-11-14T08:58:30;8.30;99.90
13711;DHT22;6927;51.256;9.410;2022-11-14T09:01:04;8.60;99.90
13711;DHT22;6927;51.256;9.410;2022-11-14T09:03:30;8.90;99.90
13711;DHT22;6927;51.256;9.410;2022-11-14T09:05:56;9.00;99.90
13711;DHT22;6927;51.256;9.410;2022-11-14T09:08:22;9.00;99.90
13711;DHT22;6927;51.256;9.410;2022-11-14T09:10:47;9.20;99.90
13711;DHT22;6927;51.256;9.410;2022-11-14T09:13:13;9.20;99.90
13711;DHT22;6927;51.256;9.410;2022-11-14T09:15:39;9.00;99.90
13711;DHT22;6927;51.256;9.410;2022-11-14T09:18:05;9.10;99.90
13711;DHT22;6927;51.256;9.410;2022-11-14T09:20:30;9.30;99.90
13711;DHT22;6927;51.256;9.410;2022-11-14T09:23:00;9.70;99.90
13711;DHT22;6927;51.256;9.410;2022-11-14T09:25:27;9.60;99.90
13711;DHT22;6927;51.256;9.410;2022-11-14T09:27:54;9.50;99.90
13711;DHT22;6927;51.256;9.410;2022-11-14T09:30:19;9.50;99.90
13711;DHT22;6927;51.256;9.410;2022-11-14T09:32:47;9.20;99.90
13711;DHT22;6927;51.256;9.410;2022-11-14T09:35:12;9.30;99.90
13711;DHT22;6927;51.256;9.410;2022-11-14T09:37:38;9.30;99.90
13711;DHT22;6927;51.256;9.410;2022-11-14T09:40:06;9.40;99.90
13711;DHT22;6927;51.256;9.410;2022-11-14T09:45:15;9.60;99.90
13711;DHT22;6927;51.256;9.410;2022-11-14T09:47:48;9.70;99.90
13711;DHT22;6927;51.256;9.410;2022-11-14T09:50:27;9.90;99.90
13711;DHT22;6927;51.256;9.410;2022-11-14T09:53:18;10.10;99.90
13711;DHT22;6927;51.256;9.410;2022-11-14T09:55:44;10.70;99.90
13711;DHT22;6927;51.256;9.410;2022-11-14T09:58:16;11.10;99.90
13711;DHT22;6927;51.256;9.410;2022-11-14T10:00:53;11.40;99.90
13711;DHT22;6927;51.256;9.410;2022-11-14T10:06:19;11.40;99.90
13711;DHT22;6927;51.256;9.410;2022-11-14T10:19:58;10.50;99.90
13711;DHT22;6927;51.256;9.410;2022-11-14T10:30:37;10.30;99.90
13711;DHT22;6927;51.256;9.410;2022-11-14T10:35:55;10.80;99.90
13711;DHT22;6927;51.256;9.410;2022-11-14T10:38:32;10.90;99.90
13711;DHT22;6927;51.256;9.410;2022-11-14T10:41:02;10.90;99.90
13711;DHT22;6927;51.256;9.410;2022-11-14T10:43:40;10.80;99.90
13711;DHT22;6927;51.256;9.410;2022-11-14T10:46:22;10.80;99.90
13711;DHT22;6927;51.256;9.410;2022-11-14T10:48:49;10.70;99.90
13711;DHT22;6927;51.256;9.410;2022-11-14T10:56:51;10.50;99.90
13711;DHT22;6927;51.256;9.410;2022-11-14T10:59:17;10.50;99.90
13711;DHT22;6927;51.256;9.410;2022-11-14T11:04:29;10.50;99.90
13711;DHT22;6927;51.256;9.410;2022-11-14T11:07:18;10.30;99.90
13711;DHT22;6927;51.256;9.410;2022-11-14T11:10:01;10.40;99.90
13711;DHT22;6927;51.256;9.410;2022-11-14T11:12:53;10.40;99.90
13711;DHT22;6927;51.256;9.410;2022-11-14T11:15:24;10.50;99.90
13711;DHT22;6927;51.256;9.410;2022-11-14T11:17:57;10.60;99.90
13711;DHT22;6927;51.256;9.410;2022-11-14T11:20:38;10.50;99.90
13711;DHT22;6927;51.256;9.410;2022-11-14T11:25:37;11.10;99.90
13711;DHT22;6927;51.256;9.410;2022-11-14T11:28:15;11.40;99.90
13711;DHT22;6927;51.256;9.410;2022-11-14T11:31:01;11.60;99.90
13711;DHT22;6927;51.256;9.410;2022-11-14T11:33:34;11.30;99.90
13711;DHT22;6927;51.256;9.410;2022-11-14T11:36:19;11.00;99.90
13711;DHT22;6927;51.256;9.410;2022-11-14T11:38:46;10.80;99.90
13711;DHT22;6927;51.256;9.410;2022-11-14T11:41:26;10.50;99.90
13711;DHT22;6927;51.256;9.410;2022-11-14T11:43:56;10.50;99.90
13711;DHT22;6927;51.256;9.410;2022-11-14T11:47:03;10.80;99.90
13711;DHT22;6927;51.256;9.410;2022-11-14T11:49:42;11.00;99.90
13711;DHT22;6927;51.256;9.410;2022-11-14T11:52:30;11.10;99.90
13711;DHT22;6927;51.256;9.410;2022-11-14T12:00:37;12.00;99.90
13711;DHT22;6927;51.256;9.410;2022-11-14T12:03:04;12.30;99.90
13711;DHT22;6927;51.256;9.410;2022-11-14T12:08:31;13.00;99.90
13711;DHT22;6927;51.256;9.410;2022-11-14T12:11:02;13.20;99.90
13711;DHT22;6927;51.256;9.410;2022-11-14T12:16:29;13.10;99.90
13711;DHT22;6927;51.256;9.410;2022-11-14T12:27:42;13.00;99.90
13711;DHT22;6927;51.256;9.410;2022-11-14T12:30:21;12.50;99.90
13711;DHT22;6927;51.256;9.410;2022-11-14T12:33:03;12.70;99.90
13711;DHT22;6927;51.256;9.410;2022-11-14T12:35:34;13.00;99.90
13711;DHT22;6927;51.256;9.410;2022-11-14T12:38:02;13.00;99.90
13711;DHT22;6927;51.256;9.410;2022-11-14T12:40:39;13.10;99.90
13711;DHT22;6927;51.256;9.410;2022-11-14T12:43:28;13.20;99.90
13711;DHT22;6927;51.256;9.410;2022-11-14T12:45:56;12.80;99.90
13711;DHT22;6927;51.256;9.410;2022-11-14T12:50:51;12.40;99.90
13711;DHT22;6927;51.256;9.410;2022-11-14T12:58:49;12.30;99.90
13711;DHT22;6927;51.256;9.410;2022-11-14T13:01:26;12.80;99.90
13711;DHT22;6927;51.256;9.410;2022-11-14T13:09:38;13.20;99.90
13711;DHT22;6927;51.256;9.410;2022-11-14T13:12:28;12.90;99.90
13711;DHT22;6927;51.256;9.410;2022-11-14T13:15:32;12.70;99.90
13711;DHT22;6927;51.256;9.410;2022-11-14T13:18:18;12.60;99.90
13711;DHT22;6927;51.256;9.410;2022-11-14T13:21:13;12.40;99.90
13711;DHT22;6927;51.256;9.410;2022-11-14T13:23:59;12.20;99.90
13711;DHT22;6927;51.256;9.410;2022-11-14T13:28:51;12.20;99.90
13711;DHT22;6927;51.256;9.410;2022-11-14T13:31:18;12.40;99.90
13711;DHT22;6927;51.256;9.410;2022-11-14T13:33:44;12.80;99.90
13711;DHT22;6927;51.256;9.410;2022-11-14T13:36:33;13.20;99.90
13711;DHT22;6927;51.256;9.410;2022-11-14T13:45:08;12.40;99.90
13711;DHT22;6927;51.256;9.410;2022-11-14T13:50:33;13.90;99.90
13711;DHT22;6927;51.256;9.410;2022-11-14T13:53:01;14.80;99.90
13711;DHT22;6927;51.256;9.410;2022-11-14T14:07:04;13.00;99.90
13711;DHT22;6927;51.256;9.410;2022-11-14T14:13:06;12.30;99.90
13711;DHT22;6927;51.256;9.410;2022-11-14T14:15:19;12.20;99.90
13711;DHT22;6927;51.256;9.410;2022-11-14T14:17:59;12.00;99.90
13711;DHT22;6927;51.256;9.410;2022-11-14T14:20:54;11.90;99.90
13711;DHT22;6927;51.256;9.410;2022-11-14T14:23:37;11.70;99.90
13711;DHT22;6927;51.256;9.410;2022-11-14T14:28:53;11.60;99.90
13711;DHT22;6927;51.256;9.410;2022-11-14T14:31:24;11.50;99.90
13711;DHT22;6927;51.256;9.410;2022-11-14T14:33:56;11.40;99.90
13711;DHT22;6927;51.256;9.410;2022-11-14T14:36:30;11.40;99.90
13711;DHT22;6927;51.256;9.410;2022-11-14T14:39:28;11.40;99.90
13711;DHT22;6927;51.256;9.410;2022-11-14T14:41:56;11.50;99.90
13711;DHT22;6927;51.256;9.410;2022-11-14T14:44:30;11.50;99.90
13711;DHT22;6927;51.256;9.410;2022-11-14T14:46:58;11.50;99.90
13711;DHT22;6927;51.256;9.410;2022-11-14T14:49:28;11.50;99.90
13711;DHT22;6927;51.256;9.410;2022-11-14T14:51:54;11.50;99.90
13711;DHT22;6927;51.256;9.410;2022-11-14T14:54:25;11.50;99.90
13711;DHT22;6927;51.256;9.410;2022-11-14T14:56:57;11.50;99.90
13711;DHT22;6927;51.256;9.410;2022-11-14T14:59:28;11.40;99.90
13711;DHT22;6927;51.256;9.410;2022-11-14T15:01:56;11.30;99.90
13711;DHT22;6927;51.256;9.410;2022-11-14T15:04:26;11.30;99.90
13711;DHT22;6927;51.256;9.410;2022-11-14T15:06:53;11.20;99.90
13711;DHT22;6927;51.256;9.410;2022-11-14T15:09:26;11.10;99.90
13711;DHT22;6927;51.256;9.410;2022-11-14T15:11:55;11.10;99.90
13711;DHT22;6927;51.256;9.410;2022-11-14T15:14:26;11.00;99.90
13711;DHT22;6927;51.256;9.410;2022-11-14T15:16:53;10.90;99.90
13711;DHT22;6927;51.256;9.410;2022-11-14T15:19:25;10.80;99.90
13711;DHT22;6927;51.256;9.410;2022-11-14T15:22:01;10.70;99.90
13711;DHT22;6927;51.256;9.410;2022-11-14T15:24:27;10.70;99.90
13711;DHT22;6927;51.256;9.410;2022-11-14T15:26:53;10.50;99.90
13711;DHT22;6927;51.256;9.410;2022-11-14T15:29:24;10.40;99.90
13711;DHT22;6927;51.256;9.410;2022-11-14T15:31:51;10.30;99.90
13711;DHT22;6927;51.256;9.410;2022-11-14T15:34:23;10.20;99.90
13711;DHT22;6927;51.256;9.410;2022-11-14T15:39:43;10.00;99.90
13711;DHT22;6927;51.256;9.410;2022-11-14T15:44:54;9.80;99.90
13711;DHT22;6927;51.256;9.410;2022-11-14T15:47:38;9.70;99.90
13711;DHT22;6927;51.256;9.410;2022-11-14T15:50:22;9.60;99.90
13711;DHT22;6927;51.256;9.410;2022-11-14T15:53:04;9.50;99.90
13711;DHT22;6927;51.256;9.410;2022-11-14T15:55:30;9.30;99.90
13711;DHT22;6927;51.256;9.410;2022-11-14T15:57:56;9.20;99.90
13711;DHT22;6927;51.256;9.410;2022-11-14T16:00:22;9.10;99.90
13711;DHT22;6927;51.256;9.410;2022-11-14T16:02:55;9.10;99.90
13711;DHT22;6927;51.256;9.410;2022-11-14T16:05:27;9.00;99.90
13711;DHT22;6927;51.256;9.410;2022-11-14T16:07:54;8.90;99.90
13711;DHT22;6927;51.256;9.410;2022-11-14T16:10:21;8.80;99.90
13711;DHT22;6927;51.256;9.410;2022-11-14T16:12:47;8.80;99.90
13711;DHT22;6927;51.256;9.410;2022-11-14T16:15:14;8.60;99.90
13711;DHT22;6927;51.256;9.410;2022-11-14T16:17:42;8.60;99.90
13711;DHT22;6927;51.256;9.410;2022-11-14T16:20:18;8.70;99.90
13711;DHT22;6927;51.256;9.410;2022-11-14T16:22:45;8.80;99.90
13711;DHT22;6927;51.256;9.410;2022-11-14T16:27:45;8.80;99.90
13711;DHT22;6927;51.256;9.410;2022-11-14T16:30:15;8.90;99.90
13711;DHT22;6927;51.256;9.410;2022-11-14T16:32:42;8.90;99.90
13711;DHT22;6927;51.256;9.410;2022-11-14T16:37:41;9.00;99.90
13711;DHT22;6927;51.256;9.410;2022-11-14T16:40:13;9.10;99.90
13711;DHT22;6927;51.256;9.410;2022-11-14T16:42:40;9.10;99.90
13711;DHT22;6927;51.256;9.410;2022-11-14T16:45:06;9.20;99.90
13711;DHT22;6927;51.256;9.410;2022-11-14T16:47:32;9.20;99.90
13711;DHT22;6927;51.256;9.410;2022-11-14T16:49:58;9.20;99.90
13711;DHT22;6927;51.256;9.410;2022-11-14T16:52:25;9.20;99.90
13711;DHT22;6927;51.256;9.410;2022-11-14T16:54:51;9.20;99.90
13711;DHT22;6927;51.256;9.410;2022-11-14T16:57:20;9.20;99.90
13711;DHT22;6927;51.256;9.410;2022-11-14T16:59:46;9.20;99.90
13711;DHT22;6927;51.256;9.410;2022-11-14T17:02:13;9.20;99.90
13711;DHT22;6927;51.256;9.410;2022-11-14T17:04:42;9.20;99.90
13711;DHT22;6927;51.256;9.410;2022-11-14T17:07:09;9.30;99.90
13711;DHT22;6927;51.256;9.410;2022-11-14T17:09:35;9.40;99.90
13711;DHT22;6927;51.256;9.410;2022-11-14T17:12:05;9.50;99.90
13711;DHT22;6927;51.256;9.410;2022-11-14T17:14:31;9.60;99.90
13711;DHT22;6927;51.256;9.410;2022-11-14T17:16:57;9.60;99.90
13711;DHT22;6927;51.256;9.410;2022-11-14T17:19:23;9.70;99.90
13711;DHT22;6927;51.256;9.410;2022-11-14T17:21:48;9.80;99.90
13711;DHT22;6927;51.256;9.410;2022-11-14T17:24:17;9.90;99.90
13711;DHT22;6927;51.256;9.410;2022-11-14T17:26:45;9.90;99.90
13711;DHT22;6927;51.256;9.410;2022-11-14T17:29:11;9.90;99.90
13711;DHT22;6927;51.256;9.410;2022-11-14T17:31:37;9.90;99.90
13711;DHT22;6927;51.256;9.410;2022-11-14T17:34:03;9.90;99.90
13711;DHT22;6927;51.256;9.410;2022-11-14T17:36:29;10.00;99.90
13711;DHT22;6927;51.256;9.410;2022-11-14T17:38:56;10.00;99.90
13711;DHT22;6927;51.256;9.410;2022-11-14T17:41:22;10.00;99.90
13711;DHT22;6927;51.256;9.410;2022-11-14T17:43:52;10.10;99.90
13711;DHT22;6927;51.256;9.410;2022-11-14T17:46:18;10.10;99.90
13711;DHT22;6927;51.256;9.410;2022-11-14T17:48:44;10.10;99.90
13711;DHT22;6927;51.256;9.410;2022-11-14T17:51:12;10.10;99.90
13711;DHT22;6927;51.256;9.410;2022-11-14T17:53:38;10.10;99.90
13711;DHT22;6927;51.256;9.410;2022-11-14T17:56:04;10.10;99.90
13711;DHT22;6927;51.256;9.410;2022-11-14T17:58:32;10.10;99.90
13711;DHT22;6927;51.256;9.410;2022-11-14T18:00:58;10.20;99.90
13711;DHT22;6927;51.256;9.410;2022-11-14T18:03:25;10.20;99.90